createdAt,value
2023-03-17T00:01:57.667Z,18.50
2023-03-17T00:04:28.805Z,23.38
2023-03-17T00:06:57.990Z,19.10
2023-03-17T00:09:26.512Z,15.82
2023-03-17T00:11:54.835Z,14.88
2023-03-17T00:14:23.772Z,13.85
2023-03-17T00:16:53.849Z,15.70
2023-03-17T00:19:27.628Z,14.85
2023-03-17T00:21:57.441Z,16.70
2023-03-17T00:24:25.937Z,11.95
2023-03-17T00:26:54.290Z,11.40
2023-03-17T00:29:22.672Z,12.10
2023-03-17T00:31:51.981Z,11.00
2023-03-17T00:34:25.289Z,11.80
2023-03-17T00:36:53.617Z,13.48
2023-03-17T00:39:27.325Z,11.10
2023-03-17T00:41:56.357Z,12.27
2023-03-17T00:44:25.573Z,12.45
2023-03-17T00:46:56.578Z,12.70
2023-03-17T00:49:26.820Z,12.63
2023-03-17T00:51:55.427Z,13.68
2023-03-17T00:54:25.217Z,11.80
2023-03-17T00:56:53.735Z,14.38
2023-03-17T00:59:27.486Z,12.00
2023-03-17T01:01:56.527Z,12.98
2023-03-17T01:04:25.582Z,11.15
2023-03-17T01:06:54.854Z,12.48
2023-03-17T01:09:28.417Z,13.13
2023-03-17T01:11:59.821Z,11.15
2023-03-17T01:14:28.240Z,12.43
2023-03-17T01:16:56.918Z,11.07
2023-03-17T01:19:25.315Z,10.98
2023-03-17T01:21:53.668Z,9.35
2023-03-17T01:24:22.246Z,10.40
2023-03-17T01:26:51.973Z,11.60
2023-03-17T01:29:20.267Z,11.15
2023-03-17T01:31:48.690Z,8.52
2023-03-17T01:34:16.998Z,10.93
2023-03-17T01:36:45.609Z,10.73
2023-03-17T01:39:16.145Z,10.40
2023-03-17T01:41:45.619Z,10.18
2023-03-17T01:44:18.673Z,11.70
2023-03-17T01:46:47.560Z,10.05
2023-03-17T01:49:29.385Z,9.15
2023-03-17T01:52:06.175Z,9.20
2023-03-17T01:54:42.784Z,12.05
2023-03-17T01:57:17.933Z,10.05
2023-03-17T01:59:51.980Z,10.45
2023-03-17T02:02:24.598Z,9.52
2023-03-17T02:04:54.113Z,9.82
2023-03-17T02:07:24.487Z,8.38
2023-03-17T02:12:42.924Z,9.13
2023-03-17T02:15:13.617Z,9.75
2023-03-17T02:17:42.474Z,11.43
2023-03-17T02:20:29.510Z,8.63
2023-03-17T02:23:00.172Z,11.90
2023-03-17T02:25:31.608Z,9.85
2023-03-17T02:28:06.503Z,11.63
2023-03-17T02:30:36.995Z,10.45
2023-03-17T02:33:06.034Z,9.05
2023-03-17T02:35:34.577Z,9.07
2023-03-17T02:38:04.523Z,9.00
2023-03-17T02:40:33.273Z,10.20
2023-03-17T02:43:02.431Z,12.80
2023-03-17T02:45:31.159Z,10.30
2023-03-17T02:47:59.698Z,8.73
2023-03-17T02:50:29.688Z,9.70
2023-03-17T02:52:58.639Z,10.13
2023-03-17T02:55:28.279Z,10.13
2023-03-17T02:57:56.780Z,8.88
2023-03-17T03:00:25.056Z,10.73
2023-03-17T03:02:53.440Z,11.50
2023-03-17T03:05:21.823Z,10.63
2023-03-17T03:07:51.464Z,9.20
2023-03-17T03:10:19.868Z,9.02
2023-03-17T03:12:49.731Z,9.07
2023-03-17T03:15:18.070Z,11.50
2023-03-17T03:17:46.686Z,11.68
2023-03-17T03:20:15.011Z,9.45
2023-03-17T03:22:43.294Z,10.77
2023-03-17T03:25:12.139Z,10.82
2023-03-17T03:27:41.569Z,11.27
2023-03-17T03:30:12.791Z,8.02
2023-03-17T03:32:41.019Z,8.70
2023-03-17T03:35:10.568Z,9.75
2023-03-17T03:37:38.811Z,9.15
2023-03-17T03:40:09.176Z,8.93
2023-03-17T03:42:37.440Z,11.13
2023-03-17T03:45:06.525Z,7.32
2023-03-17T03:47:36.097Z,7.60
2023-03-17T03:50:04.327Z,10.32
2023-03-17T03:52:32.580Z,9.27
2023-03-17T03:55:01.039Z,8.48
2023-03-17T03:57:29.338Z,8.40
2023-03-17T03:59:57.612Z,10.68
2023-03-17T04:02:25.899Z,12.30
2023-03-17T04:04:55.898Z,8.93
2023-03-17T04:07:24.216Z,11.32
2023-03-17T04:09:52.635Z,11.98
2023-03-17T04:12:20.892Z,9.65
2023-03-17T04:14:49.161Z,9.93
2023-03-17T04:17:17.965Z,8.95
2023-03-17T04:19:46.440Z,9.30
2023-03-17T04:22:16.546Z,10.05
2023-03-17T04:24:44.910Z,9.57
2023-03-17T04:27:15.495Z,11.40
2023-03-17T04:29:44.385Z,9.60
2023-03-17T04:32:14.883Z,10.77
2023-03-17T04:34:43.950Z,9.30
2023-03-17T04:37:12.674Z,10.93
2023-03-17T04:39:42.302Z,10.40
2023-03-17T04:42:11.324Z,8.90
2023-03-17T04:44:39.868Z,9.88
2023-03-17T04:47:08.411Z,9.20
2023-03-17T04:49:36.603Z,9.10
2023-03-17T04:52:05.088Z,11.05
2023-03-17T04:54:33.459Z,9.02
2023-03-17T04:57:03.119Z,12.25
2023-03-17T04:59:31.411Z,14.35
2023-03-17T05:01:59.646Z,11.90
2023-03-17T05:04:31.771Z,10.50
2023-03-17T05:07:00.536Z,10.90
2023-03-17T05:09:29.512Z,11.57
2023-03-17T05:11:57.889Z,10.93
2023-03-17T05:14:27.517Z,12.00
2023-03-17T05:16:55.953Z,11.18
2023-03-17T05:19:24.280Z,12.02
2023-03-17T05:21:52.479Z,10.38
2023-03-17T05:24:21.063Z,9.98
2023-03-17T05:26:49.243Z,10.13
2023-03-17T05:29:17.678Z,10.40
2023-03-17T05:31:47.443Z,9.30
2023-03-17T05:34:16.065Z,10.82
2023-03-17T05:36:44.732Z,9.57
2023-03-17T05:39:14.577Z,11.05
2023-03-17T05:41:43.073Z,10.50
2023-03-17T05:44:11.521Z,9.98
2023-03-17T05:46:39.849Z,9.82
2023-03-17T05:49:10.115Z,10.75
2023-03-17T05:51:38.357Z,10.07
2023-03-17T05:54:07.388Z,10.63
2023-03-17T05:56:36.010Z,12.25
2023-03-17T05:59:04.954Z,12.63
2023-03-17T06:01:33.304Z,17.45
2023-03-17T06:04:02.524Z,14.70
2023-03-17T06:06:32.249Z,10.82
2023-03-17T06:09:01.221Z,11.52
2023-03-17T06:11:29.589Z,10.25
2023-03-17T06:13:57.746Z,9.90
2023-03-17T06:16:26.057Z,10.63
2023-03-17T06:18:54.284Z,9.88
2023-03-17T06:21:22.441Z,10.45
2023-03-17T06:23:52.150Z,10.07
2023-03-17T06:26:20.328Z,10.13
2023-03-17T06:28:48.574Z,11.85
2023-03-17T06:31:17.951Z,13.98
2023-03-17T06:33:46.189Z,13.10
2023-03-17T06:36:14.427Z,12.10
2023-03-17T06:38:42.664Z,11.10
2023-03-17T06:41:12.409Z,11.55
2023-03-17T06:43:40.638Z,10.43
2023-03-17T06:46:09.219Z,10.20
2023-03-17T06:48:38.323Z,12.00
2023-03-17T06:51:07.163Z,12.77
2023-03-17T06:53:35.588Z,13.90
2023-03-17T06:56:05.202Z,10.90
2023-03-17T06:58:34.842Z,12.10
2023-03-17T07:01:04.250Z,15.18
2023-03-17T07:03:32.813Z,12.85
2023-03-17T07:06:01.748Z,11.45
2023-03-17T07:08:30.931Z,11.55
2023-03-17T07:10:59.319Z,13.93
2023-03-17T07:13:28.080Z,16.67
2023-03-17T07:16:00.433Z,11.55
2023-03-17T07:18:29.666Z,12.30
2023-03-17T07:20:57.870Z,13.70
2023-03-17T07:23:26.248Z,12.43
2023-03-17T07:25:54.835Z,11.77
2023-03-17T07:28:23.291Z,21.52
2023-03-17T07:30:52.526Z,13.30
2023-03-17T07:33:22.285Z,9.05
2023-03-17T07:35:50.900Z,10.32
2023-03-17T07:38:20.672Z,12.48
2023-03-17T07:40:51.060Z,18.55
2023-03-17T07:43:19.401Z,12.05
2023-03-17T07:45:48.050Z,9.15
2023-03-17T07:48:16.343Z,10.50
2023-03-17T07:50:46.079Z,10.93
2023-03-17T07:53:14.505Z,11.88
2023-03-17T07:55:42.694Z,8.80
2023-03-17T07:58:13.117Z,6.68
2023-03-17T08:00:43.351Z,7.38
2023-03-17T08:03:11.544Z,10.10
2023-03-17T08:05:39.899Z,9.07
2023-03-17T08:08:10.759Z,7.82
2023-03-17T08:10:38.933Z,9.00
2023-03-17T08:13:07.769Z,9.32
2023-03-17T08:15:36.589Z,8.98
2023-03-17T08:18:05.063Z,10.18
2023-03-17T08:20:33.940Z,8.45
2023-03-17T08:23:02.541Z,8.95
2023-03-17T08:25:32.359Z,7.38
2023-03-17T08:28:00.752Z,8.93
2023-03-17T08:30:32.386Z,8.50
2023-03-17T08:33:01.787Z,7.90
2023-03-17T08:35:31.180Z,9.52
2023-03-17T08:38:00.276Z,11.38
2023-03-17T08:40:28.699Z,11.02
2023-03-17T08:42:58.642Z,7.63
2023-03-17T08:45:26.959Z,9.35
2023-03-17T08:47:55.144Z,7.43
2023-03-17T08:50:25.219Z,9.48
2023-03-17T08:52:54.345Z,12.52
2023-03-17T08:55:22.699Z,11.00
2023-03-17T08:57:51.301Z,8.25
2023-03-17T09:00:21.973Z,9.00
2023-03-17T09:02:50.507Z,10.20
2023-03-17T09:05:19.615Z,12.65
2023-03-17T09:07:49.125Z,12.40
2023-03-17T09:10:22.633Z,11.35
2023-03-17T09:12:51.647Z,9.60
2023-03-17T09:15:21.454Z,12.38
2023-03-17T09:17:49.845Z,9.35
2023-03-17T09:20:18.695Z,8.82
2023-03-17T09:22:47.795Z,8.27
2023-03-17T09:25:16.203Z,9.52
2023-03-17T09:27:44.679Z,7.95
2023-03-17T09:30:14.577Z,10.43
2023-03-17T09:32:44.971Z,11.18
2023-03-17T09:35:14.034Z,9.15
2023-03-17T09:37:42.948Z,11.07
2023-03-17T09:40:17.214Z,13.85
2023-03-17T09:42:58.176Z,9.43
2023-03-17T09:45:35.066Z,7.70
2023-03-17T09:48:26.223Z,7.90
2023-03-17T09:50:59.068Z,9.20
2023-03-17T09:53:34.305Z,8.93
2023-03-17T09:56:08.471Z,8.85
2023-03-17T09:58:38.536Z,6.82
2023-03-17T10:01:06.933Z,8.10
2023-03-17T10:03:37.481Z,7.93
2023-03-17T10:06:34.865Z,9.68
2023-03-17T10:09:12.117Z,8.50
2023-03-17T10:11:42.744Z,7.22
2023-03-17T10:14:33.820Z,5.65
2023-03-17T10:17:05.724Z,5.80
2023-03-17T10:19:42.575Z,4.65
2023-03-17T10:22:19.498Z,8.02
2023-03-17T10:24:51.365Z,5.90
2023-03-17T10:27:20.163Z,5.78
2023-03-17T10:29:48.774Z,5.63
2023-03-17T10:32:17.251Z,6.72
2023-03-17T10:34:48.946Z,7.60
2023-03-17T10:37:20.064Z,4.60
2023-03-17T10:39:50.356Z,5.50
2023-03-17T10:42:24.924Z,4.10
2023-03-17T10:44:56.288Z,4.45
2023-03-17T10:47:32.741Z,5.03
2023-03-17T10:50:17.775Z,4.50
2023-03-17T10:52:47.793Z,3.67
2023-03-17T10:55:20.477Z,5.53
2023-03-17T10:57:54.500Z,3.83
2023-03-17T11:00:24.648Z,4.78
2023-03-17T11:02:58.267Z,4.45
2023-03-17T11:05:29.755Z,5.28
2023-03-17T11:08:00.015Z,5.88
2023-03-17T11:10:30.310Z,6.18
2023-03-17T11:13:02.010Z,4.75
2023-03-17T11:15:34.922Z,4.25
2023-03-17T11:18:05.593Z,4.13
2023-03-17T11:20:47.753Z,3.92
2023-03-17T11:23:27.468Z,4.32
2023-03-17T11:26:08.122Z,10.38
2023-03-17T11:28:42.068Z,5.20
2023-03-17T11:31:16.681Z,5.10
2023-03-17T11:33:53.383Z,4.93
2023-03-17T11:36:37.430Z,4.93
2023-03-17T11:39:13.845Z,4.25
2023-03-17T11:42:00.853Z,3.97
2023-03-17T11:44:59.955Z,4.47
2023-03-17T11:47:42.921Z,4.30
2023-03-17T11:50:23.338Z,4.45
2023-03-17T11:53:12.153Z,6.78
2023-03-17T11:55:46.518Z,5.35
2023-03-17T11:58:24.994Z,5.93
2023-03-17T12:00:58.073Z,5.35
2023-03-17T12:03:33.420Z,5.28
2023-03-17T12:06:05.711Z,5.53
2023-03-17T12:08:40.381Z,4.93
2023-03-17T12:11:13.472Z,4.28
2023-03-17T12:13:46.708Z,3.65
2023-03-17T12:16:18.562Z,5.90
2023-03-17T12:18:56.809Z,2.90
2023-03-17T12:21:31.059Z,2.73
2023-03-17T12:24:04.218Z,4.17
2023-03-17T12:26:38.769Z,3.33
2023-03-17T12:29:13.437Z,3.70
2023-03-17T12:31:46.940Z,5.60
2023-03-17T12:34:22.236Z,5.47
2023-03-17T12:36:51.496Z,3.83
2023-03-17T12:39:28.417Z,5.80
2023-03-17T12:42:11.018Z,3.50
2023-03-17T12:44:57.744Z,2.33
2023-03-17T12:47:46.927Z,2.33
2023-03-17T12:50:49.173Z,2.47
2023-03-17T12:53:27.530Z,2.40
2023-03-17T12:56:01.433Z,2.57
2023-03-17T12:58:37.167Z,3.80
2023-03-17T13:01:17.361Z,2.40
2023-03-17T13:04:02.465Z,2.80
2023-03-17T13:06:32.812Z,1.80
2023-03-17T13:09:31.398Z,1.83
2023-03-17T13:12:02.326Z,2.40
2023-03-17T13:14:43.239Z,3.03
2023-03-17T13:17:34.868Z,3.00
2023-03-17T13:20:15.857Z,2.43
2023-03-17T13:23:03.652Z,2.70
2023-03-17T13:25:35.043Z,2.87
2023-03-17T13:28:24.323Z,2.70
2023-03-17T13:31:08.831Z,2.70
2023-03-17T13:33:42.236Z,2.63
2023-03-17T13:36:31.617Z,2.90
2023-03-17T13:39:20.502Z,2.55
2023-03-17T13:42:18.695Z,3.33
2023-03-17T13:45:10.204Z,2.88
2023-03-17T13:47:42.266Z,2.97
2023-03-17T13:50:16.146Z,3.80
2023-03-17T13:52:49.727Z,3.58
2023-03-17T13:55:40.987Z,2.92
2023-03-17T13:58:26.121Z,3.40
2023-03-17T14:01:03.876Z,3.00
2023-03-17T14:03:41.791Z,3.28
2023-03-17T14:06:13.809Z,3.30
2023-03-17T14:08:47.877Z,3.88
2023-03-17T14:11:25.947Z,5.15
2023-03-17T14:14:04.894Z,3.78
2023-03-17T14:16:38.754Z,4.20
2023-03-17T14:19:17.630Z,3.05
2023-03-17T14:21:45.915Z,3.17
2023-03-17T14:24:22.291Z,3.35
2023-03-17T14:26:51.718Z,2.50
2023-03-17T14:29:23.169Z,3.00
2023-03-17T14:32:03.697Z,2.53
2023-03-17T14:34:32.409Z,3.25
2023-03-17T14:37:03.596Z,4.22
2023-03-17T14:39:32.257Z,2.72
2023-03-17T14:42:02.553Z,3.15
2023-03-17T14:44:38.246Z,4.10
2023-03-17T14:47:15.847Z,3.00
2023-03-17T14:49:44.817Z,6.20
2023-03-17T14:52:22.445Z,3.47
2023-03-17T14:54:53.692Z,5.15
2023-03-17T14:57:24.833Z,3.40
2023-03-17T15:00:01.041Z,3.83
2023-03-17T15:02:34.390Z,3.42
2023-03-17T15:05:06.714Z,4.20
2023-03-17T15:07:39.724Z,3.92
2023-03-17T15:10:15.805Z,3.90
2023-03-17T15:12:46.251Z,3.97
2023-03-17T15:15:23.670Z,3.53
2023-03-17T15:17:56.923Z,4.10
2023-03-17T15:20:25.789Z,4.05
2023-03-17T15:23:00.090Z,3.63
2023-03-17T15:25:35.503Z,4.13
2023-03-17T15:28:03.715Z,5.13
2023-03-17T15:30:46.229Z,5.47
2023-03-17T15:33:22.783Z,4.05
2023-03-17T15:35:51.801Z,5.03
2023-03-17T15:38:20.097Z,5.43
2023-03-17T15:40:48.824Z,5.20
2023-03-17T15:43:17.989Z,5.65
2023-03-17T15:45:47.274Z,5.20
2023-03-17T15:48:23.657Z,6.07
2023-03-17T15:50:52.787Z,9.52
2023-03-17T15:53:21.290Z,5.50
2023-03-17T15:55:49.828Z,5.80
2023-03-17T15:58:18.055Z,6.07
2023-03-17T16:00:49.904Z,6.88
2023-03-17T16:03:25.726Z,6.00
2023-03-17T16:05:54.175Z,5.47
2023-03-17T16:08:23.208Z,5.88
2023-03-17T16:10:52.114Z,5.70
2023-03-17T16:13:20.777Z,5.60
2023-03-17T16:16:05.456Z,5.22
2023-03-17T16:18:37.704Z,7.47
2023-03-17T16:21:06.540Z,6.50
2023-03-17T16:23:37.662Z,7.68
2023-03-17T16:26:14.766Z,7.43
2023-03-17T16:28:45.430Z,6.07
2023-03-17T16:31:20.799Z,5.00
2023-03-17T16:33:51.588Z,5.90
2023-03-17T16:36:21.730Z,6.57
2023-03-17T16:38:50.437Z,7.40
2023-03-17T16:41:21.070Z,5.70
2023-03-17T16:43:55.268Z,8.25
2023-03-17T16:46:24.136Z,5.88
2023-03-17T16:48:53.804Z,5.93
2023-03-17T16:51:22.135Z,8.07
2023-03-17T16:53:50.543Z,5.43
2023-03-17T16:56:20.648Z,8.38
2023-03-17T16:58:49.920Z,9.32
2023-03-17T17:01:20.718Z,7.05
2023-03-17T17:03:49.641Z,12.05
2023-03-17T17:06:20.842Z,8.68
2023-03-17T17:08:51.203Z,7.30
2023-03-17T17:11:20.469Z,7.07
2023-03-17T17:13:51.776Z,7.72
2023-03-17T17:16:24.485Z,12.30
2023-03-17T17:18:53.385Z,8.27
2023-03-17T17:21:23.221Z,12.52
2023-03-17T17:23:53.014Z,7.35
2023-03-17T17:26:22.078Z,9.90
2023-03-17T17:28:50.686Z,8.90
2023-03-17T17:31:18.944Z,8.85
2023-03-17T17:33:47.251Z,10.68
2023-03-17T17:36:17.408Z,9.40
2023-03-17T17:38:47.290Z,15.30
2023-03-17T17:41:17.041Z,16.75
2023-03-17T17:43:46.307Z,13.50
2023-03-17T17:46:18.425Z,17.23
2023-03-17T17:48:47.048Z,15.38
2023-03-17T17:51:15.643Z,20.92
2023-03-17T17:53:44.006Z,15.63
2023-03-17T17:56:15.958Z,12.18
2023-03-17T17:58:44.563Z,12.07
2023-03-17T18:01:14.218Z,20.40
2023-03-17T18:03:43.191Z,16.40
2023-03-17T18:06:13.149Z,14.68
2023-03-17T18:08:43.572Z,17.02
2023-03-17T18:11:11.986Z,15.35
2023-03-17T18:13:41.997Z,15.20
2023-03-17T18:16:13.978Z,22.00
2023-03-17T18:18:45.301Z,15.25
2023-03-17T18:21:14.072Z,10.80
2023-03-17T18:23:46.916Z,14.55
2023-03-17T18:26:17.364Z,14.15
2023-03-17T18:28:47.843Z,13.52
2023-03-17T18:31:21.723Z,17.65
2023-03-17T18:33:53.170Z,14.82
2023-03-17T18:36:22.416Z,15.75
2023-03-17T18:38:50.644Z,17.27
2023-03-17T18:41:19.012Z,15.13
2023-03-17T18:43:48.569Z,15.75
2023-03-17T18:46:17.385Z,15.65
2023-03-17T18:48:45.706Z,17.98
2023-03-17T18:51:13.893Z,15.55
2023-03-17T18:53:42.163Z,16.33
2023-03-17T18:56:10.890Z,19.35
2023-03-17T18:58:39.228Z,15.82
2023-03-17T19:01:08.965Z,16.90
2023-03-17T19:03:37.313Z,22.35
2023-03-17T19:06:10.807Z,17.70
2023-03-17T19:08:39.136Z,24.23
2023-03-17T19:11:08.984Z,23.27
2023-03-17T19:13:37.847Z,26.70
2023-03-17T19:16:09.350Z,20.60
2023-03-17T19:18:41.409Z,21.35
2023-03-17T19:21:11.661Z,22.42
2023-03-17T19:23:41.446Z,24.65
2023-03-17T19:26:10.453Z,24.25
2023-03-17T19:28:38.828Z,32.40
2023-03-17T19:31:09.406Z,28.20
2023-03-17T19:33:38.135Z,27.33
2023-03-17T19:36:09.091Z,25.88
2023-03-17T19:38:37.722Z,22.58
2023-03-17T19:41:06.773Z,25.20
2023-03-17T19:43:40.864Z,29.63
2023-03-17T19:46:12.517Z,23.95
2023-03-17T19:48:42.064Z,24.92
2023-03-17T19:51:10.508Z,29.30
2023-03-17T19:53:39.123Z,30.05
2023-03-17T19:56:08.548Z,18.98
2023-03-17T19:58:37.015Z,24.52
2023-03-17T20:01:06.961Z,24.02
2023-03-17T20:03:39.342Z,25.27
2023-03-17T20:06:07.666Z,22.60
2023-03-17T20:08:36.865Z,24.35
2023-03-17T20:11:06.775Z,29.35
2023-03-17T20:13:36.331Z,23.33
2023-03-17T20:16:05.825Z,29.27
2023-03-17T20:18:34.140Z,24.50
2023-03-17T20:21:05.807Z,26.95
2023-03-17T20:23:34.522Z,28.48
2023-03-17T20:26:03.700Z,29.98
2023-03-17T20:28:32.625Z,25.23
2023-03-17T20:31:03.037Z,26.00
2023-03-17T20:33:33.435Z,27.88
2023-03-17T20:36:04.732Z,25.80
2023-03-17T20:38:36.917Z,21.45
2023-03-17T20:41:10.179Z,24.00
2023-03-17T20:43:39.100Z,23.85
2023-03-17T20:46:09.052Z,21.80
2023-03-17T20:48:38.026Z,22.58
2023-03-17T20:51:10.161Z,23.38
2023-03-17T20:53:38.934Z,21.20
2023-03-17T20:56:08.604Z,18.80
2023-03-17T20:58:36.996Z,21.13
2023-03-17T21:01:05.485Z,22.58
2023-03-17T21:03:33.740Z,36.00
2023-03-17T21:06:02.084Z,40.83
2023-03-17T21:08:31.907Z,30.25
2023-03-17T21:11:00.093Z,35.63
2023-03-17T21:13:28.456Z,43.83
2023-03-17T21:15:56.995Z,48.28
2023-03-17T21:18:25.265Z,47.00
2023-03-17T21:20:53.467Z,52.53
2023-03-17T21:23:21.929Z,43.60
2023-03-17T21:25:55.249Z,42.92
2023-03-17T21:28:23.836Z,39.72
2023-03-17T21:30:52.782Z,43.67
2023-03-17T21:33:21.463Z,43.78
2023-03-17T21:35:49.749Z,37.05
2023-03-17T21:38:18.026Z,32.45
2023-03-17T21:40:46.398Z,37.20
2023-03-17T21:43:16.386Z,31.08
2023-03-17T21:45:44.756Z,32.42
2023-03-17T21:48:14.189Z,41.58
2023-03-17T21:50:42.612Z,41.33
2023-03-17T21:53:11.073Z,43.72
2023-03-17T21:55:39.419Z,40.42
2023-03-17T21:58:08.207Z,38.30
2023-03-17T22:00:45.112Z,31.02
2023-03-17T22:03:14.106Z,24.27
2023-03-17T22:05:42.340Z,29.38
2023-03-17T22:08:10.579Z,23.98
2023-03-17T22:10:40.284Z,29.05
2023-03-17T22:13:08.548Z,35.58
2023-03-17T22:15:38.196Z,37.17
2023-03-17T22:18:06.645Z,38.08
2023-03-17T22:20:34.876Z,39.15
2023-03-17T22:23:03.344Z,42.33
2023-03-17T22:25:31.586Z,41.65
2023-03-17T22:28:00.247Z,33.47
2023-03-17T22:30:28.633Z,44.92
2023-03-17T22:32:58.261Z,35.72
2023-03-17T22:35:27.268Z,32.85
2023-03-17T22:37:55.602Z,35.05
2023-03-17T22:40:23.819Z,37.20
2023-03-17T22:42:52.110Z,36.40
2023-03-17T22:45:20.349Z,35.17
2023-03-17T22:47:48.551Z,31.65
2023-03-17T22:50:18.976Z,31.02
2023-03-17T22:52:47.226Z,31.63
2023-03-17T22:55:15.784Z,32.17
2023-03-17T22:57:44.042Z,32.15
2023-03-17T23:00:16.783Z,33.15
2023-03-17T23:02:46.081Z,37.60
2023-03-17T23:05:16.036Z,39.72
2023-03-17T23:07:50.775Z,56.80
2023-03-17T23:10:23.095Z,43.47
2023-03-17T23:12:52.321Z,44.13
2023-03-17T23:15:21.131Z,49.03
2023-03-17T23:17:49.423Z,43.75
2023-03-17T23:20:17.884Z,37.20
2023-03-17T23:22:47.706Z,38.85
2023-03-17T23:25:16.305Z,40.50
2023-03-17T23:27:44.921Z,39.45
2023-03-17T23:30:14.385Z,48.88
2023-03-17T23:32:43.351Z,44.10
2023-03-17T23:35:12.782Z,47.10
2023-03-17T23:37:41.539Z,46.58
2023-03-17T23:40:14.113Z,50.05
2023-03-17T23:42:42.523Z,46.50
2023-03-17T23:45:11.898Z,55.40
2023-03-17T23:47:40.543Z,44.97
2023-03-17T23:50:09.924Z,43.25
2023-03-17T23:52:38.224Z,44.58
2023-03-17T23:55:07.940Z,38.90
2023-03-17T23:57:37.886Z,43.60
